Fuerte Quemado, Argentina
Current Conditions -  °F | °C
As of 6:00 PM on Monday 24 Nov 2014 (Local Time) from SANT Reporting Station
Few Clouds Few Clouds  
Wind Chill: 93°   Ceiling: Unl
Heat Index: 97°   Visibility: 6mi
Dew Point: 68°   Wind: 8mph
Humidity: 44%   Direction: 230°SW
Pressure: 29.62"   Gusts: NA
Location:  26.4°S, 66°W
Report Text: SANT 242100Z 23007KT 9999 FEW045TCU FEW050CB 34/20 Q1003
Loading
Personal Weather Stations






























Interactive Weather Map New forecast layout! Learn more

10-Day Weather Forecast

Advertisements
Track Severe Weather on mobile